createdAt,value
2022-08-22T00:00:09.542Z,0.01
2022-08-22T00:05:23.601Z,-0.039
2022-08-22T00:10:35.819Z,0.009
2022-08-22T00:15:48.133Z,0
2022-08-22T00:21:00.351Z,-0.003
2022-08-22T00:26:12.353Z,0.007
2022-08-22T00:31:24.525Z,-0.002
2022-08-22T00:36:36.581Z,-0.008
2022-08-22T00:41:48.903Z,-0.008
2022-08-22T00:47:01.578Z,-0.008
2022-08-22T00:52:14.921Z,-0.025
2022-08-22T01:02:37.044Z,0.003
2022-08-22T01:07:49.703Z,-0.011
2022-08-22T01:13:02.491Z,-0.043
2022-08-22T01:18:15.291Z,-0.035
2022-08-22T01:23:28.173Z,-0.036
2022-08-22T01:28:40.862Z,-0.032
2022-08-22T01:33:54.903Z,-0.044
2022-08-22T03:02:00.296Z,-0.043
2022-08-22T03:07:13.279Z,-0.03
2022-08-22T03:12:26.175Z,-0.041
2022-08-22T03:17:39.106Z,-0.037
2022-08-22T03:22:52.056Z,-0.032
2022-08-22T03:28:05.006Z,-0.047
2022-08-22T03:48:50.445Z,-0.045
2022-08-22T05:01:22.962Z,-0.044
2022-08-22T05:48:02.561Z,-0.04
2022-08-22T06:08:48.293Z,-0.048
2022-08-22T06:24:22.011Z,0.004
2022-08-22T06:29:34.272Z,0.029
2022-08-22T06:34:46.612Z,0.01
2022-08-22T06:39:58.931Z,0.073
2022-08-22T06:45:11.681Z,0.042
2022-08-22T06:50:23.860Z,0.094
2022-08-22T06:55:36.122Z,0.098
2022-08-22T07:00:54.601Z,0.1
2022-08-22T07:06:21.007Z,0.062
2022-08-22T07:11:33.579Z,0.113
2022-08-22T07:16:45.911Z,0.089
2022-08-22T07:21:58.452Z,0.122
2022-08-22T07:27:10.572Z,0.086
2022-08-22T07:32:24.033Z,0.126
2022-08-22T07:37:36.263Z,0.09
2022-08-22T07:42:49.770Z,0.145
2022-08-22T07:48:03.181Z,0.102
2022-08-22T07:53:16.484Z,0.114
2022-08-22T07:58:28.763Z,0.094
2022-08-22T08:03:41.384Z,0.149
2022-08-22T08:08:53.973Z,0.141
2022-08-22T08:14:06.466Z,0.136
2022-08-22T08:19:19.049Z,0.128
2022-08-22T08:24:36.334Z,0.134
2022-08-22T08:30:13.415Z,0.146
2022-08-22T08:35:30.682Z,0.145
2022-08-22T08:41:11.503Z,0.149
2022-08-22T08:46:23.875Z,0.117
2022-08-22T08:51:38.956Z,0.082
2022-08-22T08:56:54.275Z,0.105
2022-08-22T09:02:07.067Z,0.143
2022-08-22T09:07:31.944Z,0.115
2022-08-22T09:12:56.245Z,0.146
2022-08-22T09:18:21.264Z,0.105
2022-08-22T09:23:33.685Z,0.11
2022-08-22T09:28:47.795Z,0.156
2022-08-22T09:34:00.532Z,0.096
2022-08-22T09:39:19.421Z,0.119
2022-08-22T09:44:32.724Z,0.13
2022-08-22T09:49:53.155Z,0.154
2022-08-22T09:55:08.698Z,0.131
2022-08-22T10:00:43.180Z,0.092
2022-08-22T10:05:56.003Z,0.125
2022-08-22T10:11:10.464Z,0.077
2022-08-22T10:16:24.062Z,0.156
2022-08-22T10:21:37.565Z,0.09
2022-08-22T10:26:51.133Z,0.091
2022-08-22T10:32:07.409Z,0.087
2022-08-22T10:37:25.412Z,0.121
2022-08-22T10:42:38.253Z,0.063
2022-08-22T10:48:00.263Z,0.121
2022-08-22T10:53:13.263Z,0.099
2022-08-22T10:58:27.838Z,0.107
2022-08-22T11:03:41.094Z,0.08
2022-08-22T11:08:55.045Z,0.105
2022-08-22T11:14:08.133Z,0.09
2022-08-22T11:19:21.923Z,0.124
2022-08-22T11:24:36.200Z,0.427
2022-08-22T11:30:18.095Z,0.574
2022-08-22T11:35:37.749Z,0.468
2022-08-22T11:40:52.174Z,0.184
2022-08-22T11:46:05.904Z,0.04
2022-08-22T11:51:23.152Z,0.159
2022-08-22T11:56:41.601Z,0.077
2022-08-22T12:02:02.060Z,0.259
2022-08-22T12:17:51.198Z,0.308
2022-08-22T12:23:16.723Z,0.206
2022-08-22T12:28:51.496Z,0.166
2022-08-22T12:44:25.365Z,0.189
2022-08-22T12:49:38.094Z,0.148
2022-08-22T12:54:50.580Z,0.308
2022-08-22T13:05:19.547Z,0.034
2022-08-22T13:15:53.483Z,0.02
2022-08-22T13:21:05.375Z,0.001
2022-08-22T13:31:30.066Z,0.011
2022-08-22T13:36:42.743Z,0.108
2022-08-22T13:42:02.248Z,0.067
2022-08-22T13:47:39.398Z,0.046
2022-08-22T13:58:06.868Z,0.104
2022-08-22T14:03:27.459Z,-0.017
2022-08-22T14:08:41.450Z,0.104
2022-08-22T14:14:00.709Z,-0.048
2022-08-22T14:19:13.420Z,0.195
2022-08-22T14:24:27.417Z,0.15
2022-08-22T14:34:50.210Z,-0.021
2022-08-22T14:40:04.167Z,-0.009
2022-08-22T14:45:24.320Z,0.153
2022-08-22T14:50:37.311Z,0.044
2022-08-22T14:55:50.959Z,0.063
2022-08-22T15:01:05.613Z,0.012
2022-08-22T15:06:25.034Z,0.068
2022-08-22T15:11:44.653Z,0.085
2022-08-22T15:17:05.522Z,0.061
2022-08-22T15:22:17.893Z,0.024
2022-08-22T15:27:31.212Z,-0.003
2022-08-22T15:32:44.255Z,0.001
2022-08-22T15:43:07.062Z,0.077
2022-08-22T15:48:20.942Z,0.011
2022-08-22T15:53:34.068Z,0.038
2022-08-22T15:58:48.188Z,-0.048
2022-08-22T16:04:00.823Z,0.026
2022-08-22T16:09:13.293Z,0.086
2022-08-22T16:19:36.095Z,0.028
2022-08-22T16:24:48.963Z,0.032
2022-08-22T16:35:17.693Z,-0.028
2022-08-22T16:40:30.265Z,-0.042
2022-08-22T16:45:44.257Z,-0.01
2022-08-22T16:50:57.031Z,0.034
2022-08-22T16:56:09.683Z,0.06
2022-08-22T17:01:22.373Z,-0.014
2022-08-22T17:06:35.192Z,0
2022-08-22T17:11:47.580Z,0.023
2022-08-22T17:16:59.941Z,0.054
2022-08-22T17:22:12.623Z,-0.021
2022-08-22T17:27:25.032Z,0.04
2022-08-22T17:32:37.411Z,-0.015
2022-08-22T17:37:50.572Z,-0.029
2022-08-22T17:43:02.942Z,-0.008
2022-08-22T17:48:15.543Z,0.003
2022-08-22T17:53:28.042Z,0.04
2022-08-22T17:58:43.597Z,-0.004
2022-08-22T18:03:55.333Z,-0.003
2022-08-22T18:09:15.150Z,0
2022-08-22T18:14:31.012Z,-0.022
2022-08-22T18:19:43.283Z,-0.002
2022-08-22T18:24:55.775Z,0.026
2022-08-22T18:30:08.313Z,0.004
2022-08-22T18:35:20.954Z,0.003
2022-08-22T18:40:35.224Z,-0.005
2022-08-22T18:46:02.948Z,0.006
2022-08-22T18:51:21.240Z,-0.001
2022-08-22T18:56:40.175Z,-0.003
2022-08-22T19:01:52.300Z,0.014
2022-08-22T19:07:04.863Z,-0.018
2022-08-22T19:12:16.962Z,-0.03
2022-08-22T19:17:29.027Z,-0.027
2022-08-22T19:22:42.045Z,0.01
2022-08-22T19:27:53.891Z,-0.011
2022-08-22T19:33:06.017Z,-0.041
2022-08-22T19:38:18.200Z,0.004
2022-08-22T19:43:30.755Z,-0.01
2022-08-22T19:48:42.907Z,-0.008
2022-08-22T19:53:55.061Z,0.014
2022-08-22T19:59:07.040Z,0.01
2022-08-22T20:04:19.140Z,-0.008
2022-08-22T20:09:31.651Z,0
2022-08-22T20:14:50.438Z,0.001
2022-08-22T20:20:18.666Z,0
2022-08-22T20:25:44.116Z,0
2022-08-22T20:30:55.692Z,-0.001
2022-08-22T20:36:13.895Z,0.008
2022-08-22T20:41:37.744Z,0.005
2022-08-22T20:46:53.693Z,0.001
2022-08-22T20:52:09.505Z,-0.004
2022-08-22T20:57:21.601Z,0.014
2022-08-22T21:02:33.585Z,0.002
2022-08-22T21:07:45.710Z,0.011
2022-08-22T21:12:58.320Z,0.026
2022-08-22T21:18:10.850Z,-0.014
2022-08-22T21:23:22.988Z,0.05
2022-08-22T21:28:35.425Z,0.023
2022-08-22T21:33:47.445Z,0.017
2022-08-22T21:38:59.626Z,0.015
2022-08-22T21:44:12.221Z,0.01
2022-08-22T21:49:24.438Z,0.036
2022-08-22T21:54:36.890Z,0.022
2022-08-22T21:59:51.366Z,0.024
2022-08-22T22:05:11.297Z,0.027
2022-08-22T22:10:33.164Z,-0.01
2022-08-22T22:15:45.153Z,0.034
2022-08-22T22:20:57.215Z,-0.008
2022-08-22T22:26:09.313Z,0.02
2022-08-22T22:31:21.563Z,0.02
2022-08-22T22:36:33.583Z,0.009
2022-08-22T22:41:45.703Z,0.023
2022-08-22T22:46:57.682Z,-0.014
2022-08-22T22:52:11.659Z,0.03
2022-08-22T22:57:25.335Z,0.02
2022-08-22T23:02:43.239Z,0.017
2022-08-22T23:07:55.566Z,0.011
2022-08-22T23:13:08.564Z,0.017
2022-08-22T23:18:21.070Z,0.006
2022-08-22T23:23:42.719Z,0.01
2022-08-22T23:28:54.981Z,0.014
2022-08-22T23:34:07.394Z,0.004
2022-08-22T23:39:19.671Z,0.027
2022-08-22T23:44:31.926Z,-0.003
2022-08-22T23:49:44.174Z,0.016
2022-08-22T23:54:56.311Z,0.003
